sensor_id;sensor_type;location;lat;lon;timestamp;pressure;altitude;pressure_sealevel;temperature;humidity
70555;BME280;58104;52.744;15.242;2022-11-20T00:01:22;100333.76;;;16.90;38.03
70555;BME280;58104;52.744;15.242;2022-11-20T00:03:46;100333.50;;;16.97;38.04
70555;BME280;58104;52.744;15.242;2022-11-20T00:06:13;100331.15;;;17.02;37.84
70555;BME280;58104;52.744;15.242;2022-11-20T00:08:37;100332.58;;;17.09;37.98
70555;BME280;58104;52.744;15.242;2022-11-20T00:11:04;100329.82;;;17.08;38.10
70555;BME280;58104;52.744;15.242;2022-11-20T00:13:27;100328.24;;;17.15;38.09
70555;BME280;58104;52.744;15.242;2022-11-20T00:15:57;100328.14;;;17.24;38.11
70555;BME280;58104;52.744;15.242;2022-11-20T00:18:18;100328.96;;;17.17;38.22
70555;BME280;58104;52.744;15.242;2022-11-20T00:20:44;100327.84;;;17.19;38.29
70555;BME280;58104;52.744;15.242;2022-11-20T00:23:09;100325.75;;;17.21;38.55
70555;BME280;58104;52.744;15.242;2022-11-20T00:25:35;100327.75;;;17.19;38.81
70555;BME280;58104;52.744;15.242;2022-11-20T00:28:00;100333.35;;;17.24;39.13
70555;BME280;58104;52.744;15.242;2022-11-20T00:30:26;100331.30;;;17.16;39.55
70555;BME280;58104;52.744;15.242;2022-11-20T00:32:51;100335.21;;;17.21;39.66
70555;BME280;58104;52.744;15.242;2022-11-20T00:35:17;100339.01;;;17.17;39.80
70555;BME280;58104;52.744;15.242;2022-11-20T00:37:42;100337.32;;;17.04;40.03
70555;BME280;58104;52.744;15.242;2022-11-20T00:40:09;100338.78;;;17.07;39.97
70555;BME280;58104;52.744;15.242;2022-11-20T00:42:33;100340.94;;;17.07;40.29
70555;BME280;58104;52.744;15.242;2022-11-20T00:44:59;100342.77;;;17.06;40.26
70555;BME280;58104;52.744;15.242;2022-11-20T00:47:24;100345.92;;;17.06;40.31
70555;BME280;58104;52.744;15.242;2022-11-20T00:49:49;100348.13;;;17.04;40.48
70555;BME280;58104;52.744;15.242;2022-11-20T00:52:15;100348.71;;;17.09;40.61
70555;BME280;58104;52.744;15.242;2022-11-20T00:54:40;100353.35;;;17.06;40.73
70555;BME280;58104;52.744;15.242;2022-11-20T00:57:06;100354.57;;;17.09;40.67
70555;BME280;58104;52.744;15.242;2022-11-20T00:59:31;100356.73;;;17.10;40.73
70555;BME280;58104;52.744;15.242;2022-11-20T01:01:57;100358.14;;;17.10;40.99
70555;BME280;58104;52.744;15.242;2022-11-20T01:04:22;100354.86;;;17.04;41.18
70555;BME280;58104;52.744;15.242;2022-11-20T01:06:48;100354.12;;;17.04;41.18
70555;BME280;58104;52.744;15.242;2022-11-20T01:09:14;100354.20;;;17.15;41.23
70555;BME280;58104;52.744;15.242;2022-11-20T01:11:41;100353.44;;;17.06;41.29
70555;BME280;58104;52.744;15.242;2022-11-20T01:14:07;100351.07;;;17.01;41.39
70555;BME280;58104;52.744;15.242;2022-11-20T01:16:32;100352.24;;;17.05;41.50
70555;BME280;58104;52.744;15.242;2022-11-20T01:18:58;100355.60;;;17.08;41.56
70555;BME280;58104;52.744;15.242;2022-11-20T01:21:22;100351.99;;;16.99;41.58
70555;BME280;58104;52.744;15.242;2022-11-20T01:23:48;100350.60;;;17.13;41.61
70555;BME280;58104;52.744;15.242;2022-11-20T01:26:14;100351.89;;;16.98;41.76
70555;BME280;58104;52.744;15.242;2022-11-20T01:28:38;100348.53;;;16.98;41.83
70555;BME280;58104;52.744;15.242;2022-11-20T01:31:12;100345.82;;;17.08;41.92
70555;BME280;58104;52.744;15.242;2022-11-20T01:33:28;100344.20;;;17.00;41.96
70555;BME280;58104;52.744;15.242;2022-11-20T01:36:03;100350.10;;;16.99;42.12
70555;BME280;58104;52.744;15.242;2022-11-20T01:38:19;100348.64;;;16.89;42.04
70555;BME280;58104;52.744;15.242;2022-11-20T01:40:45;100348.47;;;17.04;42.00
70555;BME280;58104;52.744;15.242;2022-11-20T01:43:14;100348.25;;;17.08;42.16
70555;BME280;58104;52.744;15.242;2022-11-20T01:48:01;100344.27;;;17.05;42.19
70555;BME280;58104;52.744;15.242;2022-11-20T01:50:28;100346.87;;;17.07;42.36
70555;BME280;58104;52.744;15.242;2022-11-20T01:52:55;100345.11;;;16.95;42.46
70555;BME280;58104;52.744;15.242;2022-11-20T01:55:21;100341.80;;;16.96;42.35
70555;BME280;58104;52.744;15.242;2022-11-20T01:57:44;100336.71;;;16.96;42.38
70555;BME280;58104;52.744;15.242;2022-11-20T02:00:12;100332.67;;;17.00;42.59
70555;BME280;58104;52.744;15.242;2022-11-20T02:02:35;100339.39;;;17.04;42.71
70555;BME280;58104;52.744;15.242;2022-11-20T02:05:04;100338.48;;;16.96;42.80
70555;BME280;58104;52.744;15.242;2022-11-20T02:07:25;100339.60;;;16.93;42.81
70555;BME280;58104;52.744;15.242;2022-11-20T02:09:51;100343.97;;;16.99;42.59
70555;BME280;58104;52.744;15.242;2022-11-20T02:12:16;100340.98;;;16.97;42.85
70555;BME280;58104;52.744;15.242;2022-11-20T02:14:41;100340.65;;;16.95;43.04
70555;BME280;58104;52.744;15.242;2022-11-20T02:17:08;100340.78;;;16.98;43.03
70555;BME280;58104;52.744;15.242;2022-11-20T02:19:32;100340.52;;;16.96;43.14
70555;BME280;58104;52.744;15.242;2022-11-20T02:22:02;100335.98;;;17.04;43.11
70555;BME280;58104;52.744;15.242;2022-11-20T02:24:23;100334.11;;;17.08;43.32
70555;BME280;58104;52.744;15.242;2022-11-20T02:26:53;100332.88;;;17.04;43.44
70555;BME280;58104;52.744;15.242;2022-11-20T02:29:16;100336.60;;;17.07;43.58
70555;BME280;58104;52.744;15.242;2022-11-20T02:31:42;100338.19;;;17.01;43.58
70555;BME280;58104;52.744;15.242;2022-11-20T02:34:05;100337.40;;;17.17;43.50
70555;BME280;58104;52.744;15.242;2022-11-20T02:36:32;100332.05;;;17.07;43.58
70555;BME280;58104;52.744;15.242;2022-11-20T02:38:56;100328.68;;;17.10;43.54
70555;BME280;58104;52.744;15.242;2022-11-20T02:41:21;100332.45;;;17.06;43.58
70555;BME280;58104;52.744;15.242;2022-11-20T02:43:47;100327.32;;;17.03;43.53
70555;BME280;58104;52.744;15.242;2022-11-20T02:46:12;100326.57;;;17.08;43.59
70555;BME280;58104;52.744;15.242;2022-11-20T02:48:37;100323.31;;;17.08;43.62
70555;BME280;58104;52.744;15.242;2022-11-20T02:51:03;100321.92;;;17.10;43.65
70555;BME280;58104;52.744;15.242;2022-11-20T02:53:28;100321.01;;;17.12;43.57
70555;BME280;58104;52.744;15.242;2022-11-20T02:55:54;100320.83;;;17.11;43.54
70555;BME280;58104;52.744;15.242;2022-11-20T02:58:19;100321.74;;;17.06;43.71
70555;BME280;58104;52.744;15.242;2022-11-20T03:00:45;100321.20;;;17.15;43.79
70555;BME280;58104;52.744;15.242;2022-11-20T03:03:10;100323.36;;;17.05;44.11
70555;BME280;58104;52.744;15.242;2022-11-20T03:05:36;100320.26;;;17.09;44.16
70555;BME280;58104;52.744;15.242;2022-11-20T03:08:01;100322.92;;;17.11;44.33
70555;BME280;58104;52.744;15.242;2022-11-20T03:10:27;100325.39;;;17.02;44.59
70555;BME280;58104;52.744;15.242;2022-11-20T03:12:53;100325.88;;;17.02;44.60
70555;BME280;58104;52.744;15.242;2022-11-20T03:15:18;100321.11;;;17.04;44.56
70555;BME280;58104;52.744;15.242;2022-11-20T03:17:43;100316.92;;;17.10;44.66
70555;BME280;58104;52.744;15.242;2022-11-20T03:20:09;100308.39;;;17.09;44.59
70555;BME280;58104;52.744;15.242;2022-11-20T03:22:34;100309.83;;;17.04;44.82
70555;BME280;58104;52.744;15.242;2022-11-20T03:24:59;100305.77;;;17.05;44.91
70555;BME280;58104;52.744;15.242;2022-11-20T03:27:25;100304.16;;;17.03;44.92
70555;BME280;58104;52.744;15.242;2022-11-20T03:29:50;100305.02;;;17.09;44.90
70555;BME280;58104;52.744;15.242;2022-11-20T03:32:16;100307.58;;;17.15;44.82
70555;BME280;58104;52.744;15.242;2022-11-20T03:34:41;100306.68;;;17.10;44.92
70555;BME280;58104;52.744;15.242;2022-11-20T03:37:07;100305.52;;;17.18;45.01
70555;BME280;58104;52.744;15.242;2022-11-20T03:39:32;100305.38;;;17.13;44.99
70555;BME280;58104;52.744;15.242;2022-11-20T03:41:58;100304.71;;;17.11;45.20
70555;BME280;58104;52.744;15.242;2022-11-20T03:44:23;100306.72;;;17.08;45.33
70555;BME280;58104;52.744;15.242;2022-11-20T03:46:48;100306.09;;;17.10;45.30
70555;BME280;58104;52.744;15.242;2022-11-20T03:49:14;100300.09;;;17.18;45.40
70555;BME280;58104;52.744;15.242;2022-11-20T03:51:40;100298.85;;;17.17;45.38
70555;BME280;58104;52.744;15.242;2022-11-20T03:54:08;100298.75;;;17.16;45.50
70555;BME280;58104;52.744;15.242;2022-11-20T03:56:33;100298.11;;;17.12;45.46
70555;BME280;58104;52.744;15.242;2022-11-20T03:58:56;100298.46;;;17.12;45.62
70555;BME280;58104;52.744;15.242;2022-11-20T04:01:23;100301.48;;;17.17;45.53
70555;BME280;58104;52.744;15.242;2022-11-20T04:03:47;100300.63;;;17.13;45.73
70555;BME280;58104;52.744;15.242;2022-11-20T04:06:16;100296.84;;;17.18;45.76
70555;BME280;58104;52.744;15.242;2022-11-20T04:08:37;100297.36;;;17.09;45.83
70555;BME280;58104;52.744;15.242;2022-11-20T04:11:08;100296.74;;;17.08;45.86
70555;BME280;58104;52.744;15.242;2022-11-20T04:13:29;100294.22;;;17.05;45.78
70555;BME280;58104;52.744;15.242;2022-11-20T04:15:57;100294.20;;;17.09;45.92
70555;BME280;58104;52.744;15.242;2022-11-20T04:18:20;100290.76;;;17.05;45.97
70555;BME280;58104;52.744;15.242;2022-11-20T04:20:45;100292.50;;;17.10;46.05
70555;BME280;58104;52.744;15.242;2022-11-20T04:23:10;100291.00;;;17.11;46.09
70555;BME280;58104;52.744;15.242;2022-11-20T04:25:35;100290.62;;;17.09;46.16
70555;BME280;58104;52.744;15.242;2022-11-20T04:28:01;100289.34;;;17.10;46.22
70555;BME280;58104;52.744;15.242;2022-11-20T04:30:26;100291.12;;;17.09;46.25
70555;BME280;58104;52.744;15.242;2022-11-20T04:32:52;100287.40;;;17.06;46.19
70555;BME280;58104;52.744;15.242;2022-11-20T04:35:17;100284.65;;;17.09;46.35
70555;BME280;58104;52.744;15.242;2022-11-20T04:37:43;100281.98;;;17.09;46.51
70555;BME280;58104;52.744;15.242;2022-11-20T04:40:09;100282.56;;;17.02;46.53
70555;BME280;58104;52.744;15.242;2022-11-20T04:42:33;100279.67;;;17.08;46.47
70555;BME280;58104;52.744;15.242;2022-11-20T04:44:59;100276.60;;;17.09;46.54
70555;BME280;58104;52.744;15.242;2022-11-20T04:47:25;100276.12;;;17.09;46.29
70555;BME280;58104;52.744;15.242;2022-11-20T04:49:50;100272.17;;;17.08;46.30
70555;BME280;58104;52.744;15.242;2022-11-20T04:52:15;100266.26;;;17.16;46.35
70555;BME280;58104;52.744;15.242;2022-11-20T04:54:40;100266.80;;;17.15;46.37
70555;BME280;58104;52.744;15.242;2022-11-20T04:57:06;100266.60;;;17.17;46.33
70555;BME280;58104;52.744;15.242;2022-11-20T04:59:31;100268.75;;;17.10;46.40
70555;BME280;58104;52.744;15.242;2022-11-20T05:01:56;100264.96;;;17.10;46.54
70555;BME280;58104;52.744;15.242;2022-11-20T05:04:22;100267.11;;;17.10;46.44
70555;BME280;58104;52.744;15.242;2022-11-20T05:06:47;100262.85;;;17.11;46.68
70555;BME280;58104;52.744;15.242;2022-11-20T05:09:13;100262.07;;;17.17;46.65
70555;BME280;58104;52.744;15.242;2022-11-20T05:11:38;100266.41;;;17.14;46.68
70555;BME280;58104;52.744;15.242;2022-11-20T05:14:03;100273.78;;;17.15;46.69
70555;BME280;58104;52.744;15.242;2022-11-20T05:16:29;100275.56;;;17.07;46.64
70555;BME280;58104;52.744;15.242;2022-11-20T05:18:54;100279.40;;;17.22;46.66
70555;BME280;58104;52.744;15.242;2022-11-20T05:21:19;100279.16;;;17.16;46.52
70555;BME280;58104;52.744;15.242;2022-11-20T05:23:45;100273.68;;;17.10;46.70
70555;BME280;58104;52.744;15.242;2022-11-20T05:26:13;100272.56;;;17.19;46.46
70555;BME280;58104;52.744;15.242;2022-11-20T05:28:35;100272.39;;;17.10;46.59
70555;BME280;58104;52.744;15.242;2022-11-20T05:31:06;100273.18;;;17.17;46.67
70555;BME280;58104;52.744;15.242;2022-11-20T05:33:26;100274.28;;;17.17;46.82
70555;BME280;58104;52.744;15.242;2022-11-20T05:35:51;100271.75;;;17.13;46.81
70555;BME280;58104;52.744;15.242;2022-11-20T05:38:17;100271.30;;;17.08;47.02
70555;BME280;58104;52.744;15.242;2022-11-20T05:40:43;100273.32;;;17.12;47.06
70555;BME280;58104;52.744;15.242;2022-11-20T05:43:08;100274.40;;;17.09;47.06
70555;BME280;58104;52.744;15.242;2022-11-20T05:45:34;100270.65;;;17.04;47.19
70555;BME280;58104;52.744;15.242;2022-11-20T05:47:59;100268.84;;;17.08;47.20
70555;BME280;58104;52.744;15.242;2022-11-20T05:50:24;100267.17;;;17.09;47.19
70555;BME280;58104;52.744;15.242;2022-11-20T05:52:49;100265.82;;;17.09;47.23
70555;BME280;58104;52.744;15.242;2022-11-20T05:55:14;100266.45;;;17.04;47.18
70555;BME280;58104;52.744;15.242;2022-11-20T05:57:40;100264.29;;;17.07;47.47
70555;BME280;58104;52.744;15.242;2022-11-20T06:00:06;100264.63;;;17.15;47.52
70555;BME280;58104;52.744;15.242;2022-11-20T06:02:30;100265.62;;;17.03;47.62
70555;BME280;58104;52.744;15.242;2022-11-20T06:04:56;100263.20;;;17.06;47.61
70555;BME280;58104;52.744;15.242;2022-11-20T06:07:22;100267.79;;;17.10;47.79
70555;BME280;58104;52.744;15.242;2022-11-20T06:09:47;100268.97;;;17.11;47.85
70555;BME280;58104;52.744;15.242;2022-11-20T06:12:12;100271.43;;;17.08;47.47
70555;BME280;58104;52.744;15.242;2022-11-20T06:14:37;100267.61;;;17.06;47.91
70555;BME280;58104;52.744;15.242;2022-11-20T06:17:03;100265.11;;;17.12;48.12
70555;BME280;58104;52.744;15.242;2022-11-20T06:19:28;100265.19;;;17.02;47.99
70555;BME280;58104;52.744;15.242;2022-11-20T06:21:54;100263.24;;;17.07;48.12
70555;BME280;58104;52.744;15.242;2022-11-20T06:24:19;100261.89;;;17.11;48.07
70555;BME280;58104;52.744;15.242;2022-11-20T06:26:45;100260.88;;;17.16;48.17
70555;BME280;58104;52.744;15.242;2022-11-20T06:29:10;100259.66;;;17.08;48.40
70555;BME280;58104;52.744;15.242;2022-11-20T06:31:36;100256.84;;;17.14;48.39
70555;BME280;58104;52.744;15.242;2022-11-20T06:34:01;100250.66;;;17.06;48.32
70555;BME280;58104;52.744;15.242;2022-11-20T06:36:27;100252.69;;;17.19;48.41
70555;BME280;58104;52.744;15.242;2022-11-20T06:38:52;100255.94;;;17.04;48.56
70555;BME280;58104;52.744;15.242;2022-11-20T06:41:19;100257.48;;;17.11;48.71
70555;BME280;58104;52.744;15.242;2022-11-20T06:43:43;100259.40;;;17.11;48.61
70555;BME280;58104;52.744;15.242;2022-11-20T06:46:09;100259.27;;;17.09;48.72
70555;BME280;58104;52.744;15.242;2022-11-20T06:48:33;100258.30;;;17.23;48.62
70555;BME280;58104;52.744;15.242;2022-11-20T06:50:59;100263.89;;;17.17;48.63
70555;BME280;58104;52.744;15.242;2022-11-20T06:53:24;100260.51;;;17.09;48.70
70555;BME280;58104;52.744;15.242;2022-11-20T06:55:51;100261.27;;;17.08;48.82
70555;BME280;58104;52.744;15.242;2022-11-20T06:58:16;100254.96;;;17.15;49.01
70555;BME280;58104;52.744;15.242;2022-11-20T07:00:41;100257.46;;;17.14;49.21
70555;BME280;58104;52.744;15.242;2022-11-20T07:03:07;100257.16;;;17.16;49.19
70555;BME280;58104;52.744;15.242;2022-11-20T07:05:31;100253.51;;;17.14;48.94
70555;BME280;58104;52.744;15.242;2022-11-20T07:07:57;100250.47;;;17.12;48.47
70555;BME280;58104;52.744;15.242;2022-11-20T07:10:22;100256.72;;;17.25;48.32
70555;BME280;58104;52.744;15.242;2022-11-20T07:12:49;100258.31;;;17.16;47.77
70555;BME280;58104;52.744;15.242;2022-11-20T07:15:13;100254.59;;;17.12;47.70
70555;BME280;58104;52.744;15.242;2022-11-20T07:17:38;100257.69;;;17.10;47.48
70555;BME280;58104;52.744;15.242;2022-11-20T07:20:04;100258.17;;;17.14;47.22
70555;BME280;58104;52.744;15.242;2022-11-20T07:22:29;100253.09;;;17.14;46.95
70555;BME280;58104;52.744;15.242;2022-11-20T07:24:54;100249.69;;;17.06;46.79
70555;BME280;58104;52.744;15.242;2022-11-20T07:27:20;100253.61;;;17.27;46.91
70555;BME280;58104;52.744;15.242;2022-11-20T07:29:45;100252.14;;;17.25;47.08
70555;BME280;58104;52.744;15.242;2022-11-20T07:32:11;100251.98;;;17.24;47.09
70555;BME280;58104;52.744;15.242;2022-11-20T07:34:37;100253.47;;;17.02;43.16
70555;BME280;58104;52.744;15.242;2022-11-20T07:37:02;100250.11;;;14.48;44.08
70555;BME280;58104;52.744;15.242;2022-11-20T07:39:27;100247.09;;;14.13;42.93
70555;BME280;58104;52.744;15.242;2022-11-20T07:41:52;100245.08;;;13.87;43.32
70555;BME280;58104;52.744;15.242;2022-11-20T07:44:18;100244.41;;;13.33;43.59
70555;BME280;58104;52.744;15.242;2022-11-20T07:46:43;100246.23;;;12.90;42.72
70555;BME280;58104;52.744;15.242;2022-11-20T07:49:09;100246.21;;;12.62;42.93
70555;BME280;58104;52.744;15.242;2022-11-20T07:51:34;100244.37;;;13.06;43.58
70555;BME280;58104;52.744;15.242;2022-11-20T07:53:59;100247.62;;;13.04;41.07
70555;BME280;58104;52.744;15.242;2022-11-20T07:56:25;100249.25;;;12.74;41.76
70555;BME280;58104;52.744;15.242;2022-11-20T07:58:50;100244.58;;;12.81;42.00
70555;BME280;58104;52.744;15.242;2022-11-20T08:01:15;100241.90;;;12.72;41.54
70555;BME280;58104;52.744;15.242;2022-11-20T08:03:41;100237.56;;;12.47;41.74
70555;BME280;58104;52.744;15.242;2022-11-20T08:06:08;100235.98;;;12.77;41.60
70555;BME280;58104;52.744;15.242;2022-11-20T08:08:33;100230.75;;;13.01;41.34
70555;BME280;58104;52.744;15.242;2022-11-20T08:10:58;100229.78;;;12.89;40.62
70555;BME280;58104;52.744;15.242;2022-11-20T08:13:23;100235.43;;;12.75;40.19
70555;BME280;58104;52.744;15.242;2022-11-20T08:15:50;100234.08;;;13.13;40.70
70555;BME280;58104;52.744;15.242;2022-11-20T08:18:15;100228.18;;;13.20;39.82
70555;BME280;58104;52.744;15.242;2022-11-20T08:20:41;100227.51;;;13.33;40.28
70555;BME280;58104;52.744;15.242;2022-11-20T08:23:07;100231.93;;;13.41;40.34
70555;BME280;58104;52.744;15.242;2022-11-20T08:25:32;100231.10;;;13.50;40.28
70555;BME280;58104;52.744;15.242;2022-11-20T08:27:57;100232.75;;;13.19;40.42
70555;BME280;58104;52.744;15.242;2022-11-20T08:30:22;100232.41;;;13.37;39.36
70555;BME280;58104;52.744;15.242;2022-11-20T08:32:48;100231.17;;;13.27;40.30
70555;BME280;58104;52.744;15.242;2022-11-20T08:35:13;100224.75;;;12.78;40.10
70555;BME280;58104;52.744;15.242;2022-11-20T08:37:39;100229.93;;;12.78;38.91
70555;BME280;58104;52.744;15.242;2022-11-20T08:40:06;100231.61;;;13.26;39.65
70555;BME280;58104;52.744;15.242;2022-11-20T08:42:30;100234.18;;;13.37;39.66
70555;BME280;58104;52.744;15.242;2022-11-20T08:44:56;100229.65;;;13.02;38.97
70555;BME280;58104;52.744;15.242;2022-11-20T08:47:21;100233.49;;;12.53;40.37
70555;BME280;58104;52.744;15.242;2022-11-20T08:49:47;100231.58;;;12.13;40.43
70555;BME280;58104;52.744;15.242;2022-11-20T08:52:13;100229.36;;;12.53;39.89
70555;BME280;58104;52.744;15.242;2022-11-20T08:54:38;100225.31;;;12.56;39.57
70555;BME280;58104;52.744;15.242;2022-11-20T08:57:04;100221.16;;;13.08;39.42
70555;BME280;58104;52.744;15.242;2022-11-20T08:59:29;100219.36;;;13.17;38.52
70555;BME280;58104;52.744;15.242;2022-11-20T09:01:54;100215.47;;;12.84;39.22
70555;BME280;58104;52.744;15.242;2022-11-20T09:04:20;100218.17;;;12.95;39.74
70555;BME280;58104;52.744;15.242;2022-11-20T09:06:46;100211.36;;;12.45;39.27
70555;BME280;58104;52.744;15.242;2022-11-20T09:09:11;100212.61;;;13.06;38.69
70555;BME280;58104;52.744;15.242;2022-11-20T09:11:37;100214.37;;;13.10;38.01
70555;BME280;58104;52.744;15.242;2022-11-20T09:14:03;100213.91;;;13.17;37.29
70555;BME280;58104;52.744;15.242;2022-11-20T09:16:28;100208.65;;;12.65;39.04
70555;BME280;58104;52.744;15.242;2022-11-20T09:18:54;100211.28;;;12.74;38.60
70555;BME280;58104;52.744;15.242;2022-11-20T09:21:20;100212.77;;;13.50;38.16
70555;BME280;58104;52.744;15.242;2022-11-20T09:23:45;100212.92;;;13.83;37.65
70555;BME280;58104;52.744;15.242;2022-11-20T09:26:13;100206.57;;;12.83;37.46
70555;BME280;58104;52.744;15.242;2022-11-20T09:28:37;100206.95;;;13.47;37.15
70555;BME280;58104;52.744;15.242;2022-11-20T09:31:05;100209.89;;;13.36;37.12
70555;BME280;58104;52.744;15.242;2022-11-20T09:33:27;100209.08;;;13.74;36.69
70555;BME280;58104;52.744;15.242;2022-11-20T09:35:53;100207.98;;;13.27;37.28
70555;BME280;58104;52.744;15.242;2022-11-20T09:38:18;100208.04;;;13.29;36.15
70555;BME280;58104;52.744;15.242;2022-11-20T09:40:47;100215.11;;;12.85;37.49
70555;BME280;58104;52.744;15.242;2022-11-20T09:43:14;100201.60;;;13.24;36.48
70555;BME280;58104;52.744;15.242;2022-11-20T09:45:42;100197.82;;;13.13;36.74
70555;BME280;58104;52.744;15.242;2022-11-20T09:48:12;100200.30;;;13.74;35.70
70555;BME280;58104;52.744;15.242;2022-11-20T09:50:31;100195.37;;;13.48;36.17
70555;BME280;58104;52.744;15.242;2022-11-20T09:53:01;100196.51;;;14.10;34.62
70555;BME280;58104;52.744;15.242;2022-11-20T09:55:17;100197.87;;;13.65;34.89
70555;BME280;58104;52.744;15.242;2022-11-20T09:57:45;100194.38;;;13.06;36.21
70555;BME280;58104;52.744;15.242;2022-11-20T10:00:12;100195.83;;;13.51;36.41
70555;BME280;58104;52.744;15.242;2022-11-20T10:02:39;100191.13;;;13.39;35.31
70555;BME280;58104;52.744;15.242;2022-11-20T10:05:03;100196.64;;;13.35;35.99
70555;BME280;58104;52.744;15.242;2022-11-20T10:07:29;100193.73;;;13.40;36.01
70555;BME280;58104;52.744;15.242;2022-11-20T10:09:52;100196.73;;;13.74;35.65
70555;BME280;58104;52.744;15.242;2022-11-20T10:12:20;100190.68;;;13.47;35.83
70555;BME280;58104;52.744;15.242;2022-11-20T10:14:52;100183.88;;;14.10;34.62
70555;BME280;58104;52.744;15.242;2022-11-20T10:17:15;100185.77;;;14.18;34.18
70555;BME280;58104;52.744;15.242;2022-11-20T10:19:44;100194.50;;;13.68;34.88
70555;BME280;58104;52.744;15.242;2022-11-20T10:22:04;100185.95;;;13.02;35.82
70555;BME280;58104;52.744;15.242;2022-11-20T10:24:36;100190.96;;;13.76;34.58
70555;BME280;58104;52.744;15.242;2022-11-20T10:26:56;100192.01;;;14.31;33.86
70555;BME280;58104;52.744;15.242;2022-11-20T10:29:16;100198.43;;;13.62;34.16
70555;BME280;58104;52.744;15.242;2022-11-20T10:31:41;100193.45;;;13.28;34.55
70555;BME280;58104;52.744;15.242;2022-11-20T10:34:07;100196.83;;;13.65;33.68
70555;BME280;58104;52.744;15.242;2022-11-20T10:36:34;100188.17;;;13.72;33.58
70555;BME280;58104;52.744;15.242;2022-11-20T10:38:58;100191.67;;;13.85;33.69
70555;BME280;58104;52.744;15.242;2022-11-20T10:41:24;100183.63;;;13.80;33.47
70555;BME280;58104;52.744;15.242;2022-11-20T10:43:48;100184.05;;;13.43;35.09
70555;BME280;58104;52.744;15.242;2022-11-20T10:46:16;100182.10;;;13.36;35.14
70555;BME280;58104;52.744;15.242;2022-11-20T10:48:38;100183.02;;;13.77;34.49
70555;BME280;58104;52.744;15.242;2022-11-20T10:51:12;100174.78;;;13.93;34.09
70555;BME280;58104;52.744;15.242;2022-11-20T10:53:41;100177.77;;;13.96;34.11
70555;BME280;58104;52.744;15.242;2022-11-20T10:55:57;100176.39;;;13.63;34.30
70555;BME280;58104;52.744;15.242;2022-11-20T10:58:26;100163.87;;;14.41;33.09
70555;BME280;58104;52.744;15.242;2022-11-20T11:00:45;100160.22;;;14.75;32.95
70555;BME280;58104;52.744;15.242;2022-11-20T11:03:20;100160.88;;;15.15;31.83
70555;BME280;58104;52.744;15.242;2022-11-20T11:05:39;100154.56;;;14.99;32.33
70555;BME280;58104;52.744;15.242;2022-11-20T11:08:02;100156.43;;;14.88;32.07
70555;BME280;58104;52.744;15.242;2022-11-20T11:10:33;100152.87;;;14.31;32.98
70555;BME280;58104;52.744;15.242;2022-11-20T11:12:52;100160.38;;;14.93;32.01
70555;BME280;58104;52.744;15.242;2022-11-20T11:15:27;100157.42;;;14.95;31.59
70555;BME280;58104;52.744;15.242;2022-11-20T11:17:47;100157.11;;;14.61;32.18
70555;BME280;58104;52.744;15.242;2022-11-20T11:20:16;100159.82;;;14.76;32.66
70555;BME280;58104;52.744;15.242;2022-11-20T11:22:42;100160.12;;;14.14;33.02
70555;BME280;58104;52.744;15.242;2022-11-20T11:24:59;100159.96;;;14.17;32.44
70555;BME280;58104;52.744;15.242;2022-11-20T11:27:25;100162.92;;;14.56;32.21
70555;BME280;58104;52.744;15.242;2022-11-20T11:29:49;100157.28;;;14.06;32.98
70555;BME280;58104;52.744;15.242;2022-11-20T11:32:17;100155.73;;;14.70;32.06
70555;BME280;58104;52.744;15.242;2022-11-20T11:34:40;100157.32;;;14.40;31.71
70555;BME280;58104;52.744;15.242;2022-11-20T11:37:12;100162.45;;;14.15;32.84
70555;BME280;58104;52.744;15.242;2022-11-20T11:39:32;100160.91;;;13.77;33.84
70555;BME280;58104;52.744;15.242;2022-11-20T11:41:57;100160.78;;;13.33;33.84
70555;BME280;58104;52.744;15.242;2022-11-20T11:44:26;100163.54;;;13.35;33.49
70555;BME280;58104;52.744;15.242;2022-11-20T11:46:53;100161.07;;;13.61;33.63
70555;BME280;58104;52.744;15.242;2022-11-20T11:49:17;100160.36;;;12.94;34.12
70555;BME280;58104;52.744;15.242;2022-11-20T11:51:56;100162.49;;;13.60;33.10
70555;BME280;58104;52.744;15.242;2022-11-20T11:54:13;100158.88;;;13.15;34.45
70555;BME280;58104;52.744;15.242;2022-11-20T11:56:30;100156.73;;;13.28;33.89
70555;BME280;58104;52.744;15.242;2022-11-20T11:58:57;100150.03;;;12.49;34.48
70555;BME280;58104;52.744;15.242;2022-11-20T12:01:28;100152.16;;;13.32;33.61
70555;BME280;58104;52.744;15.242;2022-11-20T12:03:59;100153.14;;;12.80;34.85
70555;BME280;58104;52.744;15.242;2022-11-20T12:06:14;100150.19;;;12.70;35.15
70555;BME280;58104;52.744;15.242;2022-11-20T12:08:44;100150.18;;;12.91;34.74
70555;BME280;58104;52.744;15.242;2022-11-20T12:11:06;100148.74;;;13.40;33.47
70555;BME280;58104;52.744;15.242;2022-11-20T12:13:39;100141.80;;;13.26;34.43
70555;BME280;58104;52.744;15.242;2022-11-20T12:15:53;100137.41;;;13.28;34.07
70555;BME280;58104;52.744;15.242;2022-11-20T12:18:21;100137.07;;;13.16;33.45
70555;BME280;58104;52.744;15.242;2022-11-20T12:20:56;100133.40;;;13.27;33.68
70555;BME280;58104;52.744;15.242;2022-11-20T12:23:16;100126.83;;;12.88;34.26
70555;BME280;58104;52.744;15.242;2022-11-20T12:25:36;100124.34;;;12.39;34.80
70555;BME280;58104;52.744;15.242;2022-11-20T12:28:09;100127.28;;;13.04;33.88
70555;BME280;58104;52.744;15.242;2022-11-20T12:30:26;100122.19;;;12.84;34.64
70555;BME280;58104;52.744;15.242;2022-11-20T12:37:48;100116.30;;;14.02;35.48